sensor_id;sensor_type;location;lat;lon;timestamp;temperature;humidity
20670;DHT22;10494;50.868;4.180;2022-09-01T00:01:23;19.40;99.90
20670;DHT22;10494;50.868;4.180;2022-09-01T00:03:52;19.40;99.90
20670;DHT22;10494;50.868;4.180;2022-09-01T00:06:19;19.60;99.90
20670;DHT22;10494;50.868;4.180;2022-09-01T00:08:50;19.60;99.90
20670;DHT22;10494;50.868;4.180;2022-09-01T00:11:16;19.60;99.90
20670;DHT22;10494;50.868;4.180;2022-09-01T00:13:42;19.60;99.90
20670;DHT22;10494;50.868;4.180;2022-09-01T00:16:07;19.60;99.90
20670;DHT22;10494;50.868;4.180;2022-09-01T00:18:34;19.60;99.90
20670;DHT22;10494;50.868;4.180;2022-09-01T00:21:00;19.60;99.90
20670;DHT22;10494;50.868;4.180;2022-09-01T00:23:26;19.40;99.90
20670;DHT22;10494;50.868;4.180;2022-09-01T00:25:54;19.20;99.90
20670;DHT22;10494;50.868;4.180;2022-09-01T00:28:19;19.10;99.90
20670;DHT22;10494;50.868;4.180;2022-09-01T00:30:45;19.20;99.90
20670;DHT22;10494;50.868;4.180;2022-09-01T00:33:11;19.10;99.90
20670;DHT22;10494;50.868;4.180;2022-09-01T00:35:37;19.30;99.90
20670;DHT22;10494;50.868;4.180;2022-09-01T00:38:02;19.30;99.90
20670;DHT22;10494;50.868;4.180;2022-09-01T00:40:28;19.20;99.90
20670;DHT22;10494;50.868;4.180;2022-09-01T00:42:54;19.00;99.90
20670;DHT22;10494;50.868;4.180;2022-09-01T00:45:20;19.00;99.90
20670;DHT22;10494;50.868;4.180;2022-09-01T00:47:47;19.20;99.90
20670;DHT22;10494;50.868;4.180;2022-09-01T00:50:16;19.20;99.90
20670;DHT22;10494;50.868;4.180;2022-09-01T00:52:45;19.10;99.90
20670;DHT22;10494;50.868;4.180;2022-09-01T00:55:16;19.10;99.90
20670;DHT22;10494;50.868;4.180;2022-09-01T00:57:43;19.10;99.90
20670;DHT22;10494;50.868;4.180;2022-09-01T01:00:17;19.20;99.90
20670;DHT22;10494;50.868;4.180;2022-09-01T01:02:43;19.10;99.90
20670;DHT22;10494;50.868;4.180;2022-09-01T01:05:10;19.00;99.90
20670;DHT22;10494;50.868;4.180;2022-09-01T01:07:36;19.00;99.90
20670;DHT22;10494;50.868;4.180;2022-09-01T01:10:08;19.00;99.90
20670;DHT22;10494;50.868;4.180;2022-09-01T01:12:39;19.00;99.90
20670;DHT22;10494;50.868;4.180;2022-09-01T01:15:09;18.80;99.90
20670;DHT22;10494;50.868;4.180;2022-09-01T01:17:35;18.90;99.90
20670;DHT22;10494;50.868;4.180;2022-09-01T01:20:01;18.70;99.90
20670;DHT22;10494;50.868;4.180;2022-09-01T01:25:47;18.50;99.90
20670;DHT22;10494;50.868;4.180;2022-09-01T01:28:22;18.60;99.90
20670;DHT22;10494;50.868;4.180;2022-09-01T01:30:59;18.60;99.90
20670;DHT22;10494;50.868;4.180;2022-09-01T01:33:53;18.60;99.90
20670;DHT22;10494;50.868;4.180;2022-09-01T01:36:22;18.50;99.90
20670;DHT22;10494;50.868;4.180;2022-09-01T01:38:51;18.40;99.90
20670;DHT22;10494;50.868;4.180;2022-09-01T01:41:18;18.50;99.90
20670;DHT22;10494;50.868;4.180;2022-09-01T01:43:45;18.50;99.90
20670;DHT22;10494;50.868;4.180;2022-09-01T01:46:12;18.50;99.90
20670;DHT22;10494;50.868;4.180;2022-09-01T01:48:40;18.70;99.90
20670;DHT22;10494;50.868;4.180;2022-09-01T01:51:06;18.60;99.90
20670;DHT22;10494;50.868;4.180;2022-09-01T01:53:33;18.70;99.90
20670;DHT22;10494;50.868;4.180;2022-09-01T01:55:58;18.70;99.90
20670;DHT22;10494;50.868;4.180;2022-09-01T01:58:26;18.80;99.90
20670;DHT22;10494;50.868;4.180;2022-09-01T02:00:54;18.80;99.90
20670;DHT22;10494;50.868;4.180;2022-09-01T02:03:22;18.80;99.90
20670;DHT22;10494;50.868;4.180;2022-09-01T02:05:51;18.80;99.90
20670;DHT22;10494;50.868;4.180;2022-09-01T02:08:18;18.90;99.90
20670;DHT22;10494;50.868;4.180;2022-09-01T02:10:47;18.90;99.90
20670;DHT22;10494;50.868;4.180;2022-09-01T02:13:15;18.80;99.90
20670;DHT22;10494;50.868;4.180;2022-09-01T02:15:47;18.80;99.90
20670;DHT22;10494;50.868;4.180;2022-09-01T02:18:22;19.00;99.90
20670;DHT22;10494;50.868;4.180;2022-09-01T02:20:50;18.80;99.90
20670;DHT22;10494;50.868;4.180;2022-09-01T02:23:18;18.70;99.90
20670;DHT22;10494;50.868;4.180;2022-09-01T02:25:48;18.80;99.90
20670;DHT22;10494;50.868;4.180;2022-09-01T02:28:16;19.00;99.90
20670;DHT22;10494;50.868;4.180;2022-09-01T02:30:50;19.10;99.90
20670;DHT22;10494;50.868;4.180;2022-09-01T02:33:18;18.90;99.90
20670;DHT22;10494;50.868;4.180;2022-09-01T02:35:49;18.90;99.90
20670;DHT22;10494;50.868;4.180;2022-09-01T02:38:16;18.90;99.90
20670;DHT22;10494;50.868;4.180;2022-09-01T02:40:43;18.90;99.90
20670;DHT22;10494;50.868;4.180;2022-09-01T02:43:10;18.90;99.90
20670;DHT22;10494;50.868;4.180;2022-09-01T02:45:36;19.00;99.90
20670;DHT22;10494;50.868;4.180;2022-09-01T02:48:03;18.90;99.90
20670;DHT22;10494;50.868;4.180;2022-09-01T02:50:37;18.90;99.90
20670;DHT22;10494;50.868;4.180;2022-09-01T02:53:03;18.90;99.90
20670;DHT22;10494;50.868;4.180;2022-09-01T02:55:35;18.90;99.90
20670;DHT22;10494;50.868;4.180;2022-09-01T02:58:00;18.90;99.90
20670;DHT22;10494;50.868;4.180;2022-09-01T03:00:26;19.00;99.90
20670;DHT22;10494;50.868;4.180;2022-09-01T03:02:59;19.00;99.90
20670;DHT22;10494;50.868;4.180;2022-09-01T03:05:28;19.00;99.90
20670;DHT22;10494;50.868;4.180;2022-09-01T03:07:59;19.00;99.90
20670;DHT22;10494;50.868;4.180;2022-09-01T03:10:31;19.00;99.90
20670;DHT22;10494;50.868;4.180;2022-09-01T03:12:59;19.00;99.90
20670;DHT22;10494;50.868;4.180;2022-09-01T03:15:26;18.90;99.90
20670;DHT22;10494;50.868;4.180;2022-09-01T03:17:52;19.00;99.90
20670;DHT22;10494;50.868;4.180;2022-09-01T03:20:18;19.10;99.90
20670;DHT22;10494;50.868;4.180;2022-09-01T03:22:47;19.00;99.90
20670;DHT22;10494;50.868;4.180;2022-09-01T03:25:13;18.80;99.90
20670;DHT22;10494;50.868;4.180;2022-09-01T03:27:39;18.70;99.90
20670;DHT22;10494;50.868;4.180;2022-09-01T03:30:05;18.70;99.90
20670;DHT22;10494;50.868;4.180;2022-09-01T03:32:32;18.70;99.90
20670;DHT22;10494;50.868;4.180;2022-09-01T03:34:58;18.70;99.90
20670;DHT22;10494;50.868;4.180;2022-09-01T03:37:24;18.80;99.90
20670;DHT22;10494;50.868;4.180;2022-09-01T03:39:51;18.60;99.90
20670;DHT22;10494;50.868;4.180;2022-09-01T03:42:16;18.60;99.90
20670;DHT22;10494;50.868;4.180;2022-09-01T03:44:47;18.60;99.90
20670;DHT22;10494;50.868;4.180;2022-09-01T03:47:14;18.60;99.90
20670;DHT22;10494;50.868;4.180;2022-09-01T03:49:41;18.50;99.90
20670;DHT22;10494;50.868;4.180;2022-09-01T03:52:08;18.50;99.90
20670;DHT22;10494;50.868;4.180;2022-09-01T03:54:34;18.30;99.90
20670;DHT22;10494;50.868;4.180;2022-09-01T03:57:00;18.40;99.90
20670;DHT22;10494;50.868;4.180;2022-09-01T03:59:26;18.50;99.90
20670;DHT22;10494;50.868;4.180;2022-09-01T04:01:54;18.50;99.90
20670;DHT22;10494;50.868;4.180;2022-09-01T04:04:21;18.40;99.90
20670;DHT22;10494;50.868;4.180;2022-09-01T04:06:47;18.30;99.90
20670;DHT22;10494;50.868;4.180;2022-09-01T04:09:13;18.30;99.90
20670;DHT22;10494;50.868;4.180;2022-09-01T04:11:39;18.20;99.90
20670;DHT22;10494;50.868;4.180;2022-09-01T04:14:06;18.00;99.90
20670;DHT22;10494;50.868;4.180;2022-09-01T04:16:34;17.90;99.90
20670;DHT22;10494;50.868;4.180;2022-09-01T04:19:22;17.80;99.90
20670;DHT22;10494;50.868;4.180;2022-09-01T04:21:58;17.70;99.90
20670;DHT22;10494;50.868;4.180;2022-09-01T04:24:26;17.60;99.90
20670;DHT22;10494;50.868;4.180;2022-09-01T04:26:57;17.50;99.90
20670;DHT22;10494;50.868;4.180;2022-09-01T04:29:25;17.60;99.90
20670;DHT22;10494;50.868;4.180;2022-09-01T04:31:59;17.60;99.90
20670;DHT22;10494;50.868;4.180;2022-09-01T04:34:31;17.50;99.90
20670;DHT22;10494;50.868;4.180;2022-09-01T04:37:09;17.30;99.90
20670;DHT22;10494;50.868;4.180;2022-09-01T04:39:37;16.90;99.90
20670;DHT22;10494;50.868;4.180;2022-09-01T04:42:04;16.70;99.90
20670;DHT22;10494;50.868;4.180;2022-09-01T04:44:31;16.60;99.90
20670;DHT22;10494;50.868;4.180;2022-09-01T04:46:56;16.50;99.90
20670;DHT22;10494;50.868;4.180;2022-09-01T04:49:22;16.60;99.90
20670;DHT22;10494;50.868;4.180;2022-09-01T04:51:51;16.60;99.90
20670;DHT22;10494;50.868;4.180;2022-09-01T04:54:18;16.50;99.90
20670;DHT22;10494;50.868;4.180;2022-09-01T04:56:47;16.80;99.90
20670;DHT22;10494;50.868;4.180;2022-09-01T04:59:19;17.00;99.90
20670;DHT22;10494;50.868;4.180;2022-09-01T05:01:45;17.00;99.90
20670;DHT22;10494;50.868;4.180;2022-09-01T05:04:14;17.00;99.90
20670;DHT22;10494;50.868;4.180;2022-09-01T05:06:44;16.90;99.90
20670;DHT22;10494;50.868;4.180;2022-09-01T05:09:11;16.90;99.90
20670;DHT22;10494;50.868;4.180;2022-09-01T05:11:38;17.00;99.90
20670;DHT22;10494;50.868;4.180;2022-09-01T05:14:05;16.90;99.90
20670;DHT22;10494;50.868;4.180;2022-09-01T05:16:33;17.00;99.90
20670;DHT22;10494;50.868;4.180;2022-09-01T05:19:01;17.10;99.90
20670;DHT22;10494;50.868;4.180;2022-09-01T05:21:27;17.10;99.90
20670;DHT22;10494;50.868;4.180;2022-09-01T05:23:56;17.00;99.90
20670;DHT22;10494;50.868;4.180;2022-09-01T05:26:28;16.90;99.90
20670;DHT22;10494;50.868;4.180;2022-09-01T05:28:58;16.80;99.90
20670;DHT22;10494;50.868;4.180;2022-09-01T05:31:26;16.90;99.90
20670;DHT22;10494;50.868;4.180;2022-09-01T05:33:53;16.80;99.90
20670;DHT22;10494;50.868;4.180;2022-09-01T05:36:21;16.70;99.90
20670;DHT22;10494;50.868;4.180;2022-09-01T05:38:48;16.70;99.90
20670;DHT22;10494;50.868;4.180;2022-09-01T05:41:16;16.70;99.90
20670;DHT22;10494;50.868;4.180;2022-09-01T05:43:46;16.90;99.90
20670;DHT22;10494;50.868;4.180;2022-09-01T05:46:18;16.60;99.90
20670;DHT22;10494;50.868;4.180;2022-09-01T05:48:46;16.70;99.90
20670;DHT22;10494;50.868;4.180;2022-09-01T05:51:15;16.70;99.90
20670;DHT22;10494;50.868;4.180;2022-09-01T05:53:45;16.50;99.90
20670;DHT22;10494;50.868;4.180;2022-09-01T05:56:11;16.40;99.90
20670;DHT22;10494;50.868;4.180;2022-09-01T05:58:38;16.60;99.90
20670;DHT22;10494;50.868;4.180;2022-09-01T06:01:05;16.80;99.90
20670;DHT22;10494;50.868;4.180;2022-09-01T06:03:31;16.70;99.90
20670;DHT22;10494;50.868;4.180;2022-09-01T06:06:04;16.60;99.90
20670;DHT22;10494;50.868;4.180;2022-09-01T06:08:34;16.80;99.90
20670;DHT22;10494;50.868;4.180;2022-09-01T06:11:00;16.90;99.90
20670;DHT22;10494;50.868;4.180;2022-09-01T06:13:28;17.20;99.90
20670;DHT22;10494;50.868;4.180;2022-09-01T06:15:54;17.50;99.90
20670;DHT22;10494;50.868;4.180;2022-09-01T06:18:22;17.60;99.90
20670;DHT22;10494;50.868;4.180;2022-09-01T06:20:48;17.70;99.90
20670;DHT22;10494;50.868;4.180;2022-09-01T06:23:16;17.50;99.90
20670;DHT22;10494;50.868;4.180;2022-09-01T06:25:43;17.60;99.90
20670;DHT22;10494;50.868;4.180;2022-09-01T06:28:12;17.70;99.90
20670;DHT22;10494;50.868;4.180;2022-09-01T06:30:39;17.90;99.90
20670;DHT22;10494;50.868;4.180;2022-09-01T06:33:05;18.00;99.90
20670;DHT22;10494;50.868;4.180;2022-09-01T06:35:37;18.30;99.90
20670;DHT22;10494;50.868;4.180;2022-09-01T06:38:04;18.30;99.90
20670;DHT22;10494;50.868;4.180;2022-09-01T06:40:32;18.20;99.90
20670;DHT22;10494;50.868;4.180;2022-09-01T06:42:58;18.30;99.90
20670;DHT22;10494;50.868;4.180;2022-09-01T06:45:25;18.50;99.90
20670;DHT22;10494;50.868;4.180;2022-09-01T06:47:51;18.40;99.90
20670;DHT22;10494;50.868;4.180;2022-09-01T06:50:19;18.50;99.90
20670;DHT22;10494;50.868;4.180;2022-09-01T06:52:47;18.40;99.90
20670;DHT22;10494;50.868;4.180;2022-09-01T06:55:15;18.20;99.90
20670;DHT22;10494;50.868;4.180;2022-09-01T06:57:42;18.30;99.90
20670;DHT22;10494;50.868;4.180;2022-09-01T07:00:14;18.30;99.90
20670;DHT22;10494;50.868;4.180;2022-09-01T07:02:54;18.40;99.90
20670;DHT22;10494;50.868;4.180;2022-09-01T07:05:20;18.90;99.90
20670;DHT22;10494;50.868;4.180;2022-09-01T07:07:50;19.00;99.90
20670;DHT22;10494;50.868;4.180;2022-09-01T07:10:17;19.00;99.90
20670;DHT22;10494;50.868;4.180;2022-09-01T07:12:48;19.20;99.90
20670;DHT22;10494;50.868;4.180;2022-09-01T07:15:14;19.20;99.90
20670;DHT22;10494;50.868;4.180;2022-09-01T07:17:51;19.50;99.90
20670;DHT22;10494;50.868;4.180;2022-09-01T07:20:19;19.70;99.90
20670;DHT22;10494;50.868;4.180;2022-09-01T07:22:47;19.90;99.90
20670;DHT22;10494;50.868;4.180;2022-09-01T07:25:13;20.20;99.90
20670;DHT22;10494;50.868;4.180;2022-09-01T07:27:40;20.60;99.90
20670;DHT22;10494;50.868;4.180;2022-09-01T07:30:14;21.50;99.90
20670;DHT22;10494;50.868;4.180;2022-09-01T07:32:40;23.00;99.90
20670;DHT22;10494;50.868;4.180;2022-09-01T07:35:12;24.30;99.90
20670;DHT22;10494;50.868;4.180;2022-09-01T07:37:39;25.50;99.90
20670;DHT22;10494;50.868;4.180;2022-09-01T07:40:11;26.60;99.90
20670;DHT22;10494;50.868;4.180;2022-09-01T07:42:37;27.40;99.90
20670;DHT22;10494;50.868;4.180;2022-09-01T07:45:07;28.10;97.70
20670;DHT22;10494;50.868;4.180;2022-09-01T07:47:36;28.30;96.40
20670;DHT22;10494;50.868;4.180;2022-09-01T07:50:07;29.20;93.90
20670;DHT22;10494;50.868;4.180;2022-09-01T07:52:34;29.80;91.00
20670;DHT22;10494;50.868;4.180;2022-09-01T07:55:02;30.30;85.60
20670;DHT22;10494;50.868;4.180;2022-09-01T07:57:28;30.50;81.40
20670;DHT22;10494;50.868;4.180;2022-09-01T07:59:54;30.50;79.70
20670;DHT22;10494;50.868;4.180;2022-09-01T08:02:20;31.20;77.50
20670;DHT22;10494;50.868;4.180;2022-09-01T08:04:46;31.80;74.70
20670;DHT22;10494;50.868;4.180;2022-09-01T08:07:13;31.20;73.40
20670;DHT22;10494;50.868;4.180;2022-09-01T08:09:39;30.80;72.20
20670;DHT22;10494;50.868;4.180;2022-09-01T08:12:06;31.30;71.80
20670;DHT22;10494;50.868;4.180;2022-09-01T08:14:32;30.50;72.70
20670;DHT22;10494;50.868;4.180;2022-09-01T08:16:58;27.50;77.90
20670;DHT22;10494;50.868;4.180;2022-09-01T08:19:24;27.10;86.00
20670;DHT22;10494;50.868;4.180;2022-09-01T08:21:49;28.60;82.50
20670;DHT22;10494;50.868;4.180;2022-09-01T08:24:15;30.20;77.00
20670;DHT22;10494;50.868;4.180;2022-09-01T08:26:41;30.70;73.30
20670;DHT22;10494;50.868;4.180;2022-09-01T08:29:06;31.60;71.10
20670;DHT22;10494;50.868;4.180;2022-09-01T08:31:32;31.60;69.90
20670;DHT22;10494;50.868;4.180;2022-09-01T08:34:00;31.60;67.30
20670;DHT22;10494;50.868;4.180;2022-09-01T08:36:29;31.80;68.00
20670;DHT22;10494;50.868;4.180;2022-09-01T08:38:55;31.90;66.40
20670;DHT22;10494;50.868;4.180;2022-09-01T08:47:02;33.10;60.80
20670;DHT22;10494;50.868;4.180;2022-09-01T08:49:29;33.40;59.50
20670;DHT22;10494;50.868;4.180;2022-09-01T08:54:48;33.10;58.70
20670;DHT22;10494;50.868;4.180;2022-09-01T08:57:54;33.40;58.80
20670;DHT22;10494;50.868;4.180;2022-09-01T09:00:23;33.40;57.60
20670;DHT22;10494;50.868;4.180;2022-09-01T09:11:05;33.50;56.40
20670;DHT22;10494;50.868;4.180;2022-09-01T09:13:46;33.20;56.10
20670;DHT22;10494;50.868;4.180;2022-09-01T09:16:32;32.90;56.70
20670;DHT22;10494;50.868;4.180;2022-09-01T09:19:04;32.40;57.90
20670;DHT22;10494;50.868;4.180;2022-09-01T09:21:35;33.30;56.70
20670;DHT22;10494;50.868;4.180;2022-09-01T09:24:33;34.10;55.10
20670;DHT22;10494;50.868;4.180;2022-09-01T09:27:33;34.60;54.10
20670;DHT22;10494;50.868;4.180;2022-09-01T09:33:03;33.80;53.20
20670;DHT22;10494;50.868;4.180;2022-09-01T09:35:41;33.40;54.20
20670;DHT22;10494;50.868;4.180;2022-09-01T09:41:07;32.70;54.90
20670;DHT22;10494;50.868;4.180;2022-09-01T09:46:44;33.20;54.80
20670;DHT22;10494;50.868;4.180;2022-09-01T09:49:19;33.00;54.30
20670;DHT22;10494;50.868;4.180;2022-09-01T09:56:47;31.10;57.90
20670;DHT22;10494;50.868;4.180;2022-09-01T10:01:48;31.60;56.30
20670;DHT22;10494;50.868;4.180;2022-09-01T10:04:34;31.90;56.00
20670;DHT22;10494;50.868;4.180;2022-09-01T10:07:00;31.60;55.80
20670;DHT22;10494;50.868;4.180;2022-09-01T10:11:54;30.70;56.90
20670;DHT22;10494;50.868;4.180;2022-09-01T10:14:37;30.50;57.50
20670;DHT22;10494;50.868;4.180;2022-09-01T10:17:57;30.20;58.00
20670;DHT22;10494;50.868;4.180;2022-09-01T10:20:06;29.80;58.20
20670;DHT22;10494;50.868;4.180;2022-09-01T10:22:35;29.60;58.30
20670;DHT22;10494;50.868;4.180;2022-09-01T10:25:02;29.20;58.70
20670;DHT22;10494;50.868;4.180;2022-09-01T10:27:35;28.80;59.90
20670;DHT22;10494;50.868;4.180;2022-09-01T10:30:07;29.20;59.50
20670;DHT22;10494;50.868;4.180;2022-09-01T10:32:42;29.60;57.80
20670;DHT22;10494;50.868;4.180;2022-09-01T10:35:14;29.70;57.20
20670;DHT22;10494;50.868;4.180;2022-09-01T10:37:41;29.40;57.90
20670;DHT22;10494;50.868;4.180;2022-09-01T10:40:56;29.50;58.10
20670;DHT22;10494;50.868;4.180;2022-09-01T10:43:23;29.10;56.90
20670;DHT22;10494;50.868;4.180;2022-09-01T10:45:50;28.00;57.80
20670;DHT22;10494;50.868;4.180;2022-09-01T10:48:32;28.00;59.60
20670;DHT22;10494;50.868;4.180;2022-09-01T10:59:06;29.20;55.90
20670;DHT22;10494;50.868;4.180;2022-09-01T11:04:13;29.00;55.80
20670;DHT22;10494;50.868;4.180;2022-09-01T11:07:05;28.20;56.60
20670;DHT22;10494;50.868;4.180;2022-09-01T11:15:49;28.40;56.00
20670;DHT22;10494;50.868;4.180;2022-09-01T11:18:22;27.90;56.30
20670;DHT22;10494;50.868;4.180;2022-09-01T11:20:50;27.90;57.40
20670;DHT22;10494;50.868;4.180;2022-09-01T11:23:27;27.80;56.90
20670;DHT22;10494;50.868;4.180;2022-09-01T11:26:01;27.90;56.00
20670;DHT22;10494;50.868;4.180;2022-09-01T11:28:46;27.80;57.30
20670;DHT22;10494;50.868;4.180;2022-09-01T11:31:21;27.80;56.90
20670;DHT22;10494;50.868;4.180;2022-09-01T11:36:35;27.80;56.80
20670;DHT22;10494;50.868;4.180;2022-09-01T11:47:20;27.70;57.30
20670;DHT22;10494;50.868;4.180;2022-09-01T11:49:59;27.90;57.20
20670;DHT22;10494;50.868;4.180;2022-09-01T11:52:29;27.70;56.70
20670;DHT22;10494;50.868;4.180;2022-09-01T11:54:56;27.80;56.80
20670;DHT22;10494;50.868;4.180;2022-09-01T11:57:31;27.70;57.60
20670;DHT22;10494;50.868;4.180;2022-09-01T11:59:59;27.90;57.40
20670;DHT22;10494;50.868;4.180;2022-09-01T12:02:31;28.00;55.60
20670;DHT22;10494;50.868;4.180;2022-09-01T12:04:58;27.50;56.60
20670;DHT22;10494;50.868;4.180;2022-09-01T12:07:44;27.60;57.20
20670;DHT22;10494;50.868;4.180;2022-09-01T12:10:23;27.50;57.30
20670;DHT22;10494;50.868;4.180;2022-09-01T12:13:21;27.00;57.80
20670;DHT22;10494;50.868;4.180;2022-09-01T12:15:56;27.40;57.10
20670;DHT22;10494;50.868;4.180;2022-09-01T12:18:25;27.80;56.80
20670;DHT22;10494;50.868;4.180;2022-09-01T12:20:54;28.00;55.60
20670;DHT22;10494;50.868;4.180;2022-09-01T12:23:33;27.70;55.80
20670;DHT22;10494;50.868;4.180;2022-09-01T12:26:07;27.40;56.40
20670;DHT22;10494;50.868;4.180;2022-09-01T12:28:33;27.50;57.40
20670;DHT22;10494;50.868;4.180;2022-09-01T12:31:02;27.70;57.00
20670;DHT22;10494;50.868;4.180;2022-09-01T12:33:31;27.50;56.10
20670;DHT22;10494;50.868;4.180;2022-09-01T12:36:35;27.40;57.10
20670;DHT22;10494;50.868;4.180;2022-09-01T12:39:21;27.50;56.90
20670;DHT22;10494;50.868;4.180;2022-09-01T12:47:04;27.70;56.70
20670;DHT22;10494;50.868;4.180;2022-09-01T12:49:45;27.70;56.20
20670;DHT22;10494;50.868;4.180;2022-09-01T12:54:37;27.70;56.50
20670;DHT22;10494;50.868;4.180;2022-09-01T12:57:03;26.80;57.60
20670;DHT22;10494;50.868;4.180;2022-09-01T12:59:29;26.90;58.60
20670;DHT22;10494;50.868;4.180;2022-09-01T13:01:54;27.30;58.70
20670;DHT22;10494;50.868;4.180;2022-09-01T13:06:47;28.00;56.30
20670;DHT22;10494;50.868;4.180;2022-09-01T13:09:13;28.20;55.40
20670;DHT22;10494;50.868;4.180;2022-09-01T13:11:39;28.20;55.10
20670;DHT22;10494;50.868;4.180;2022-09-01T13:14:07;28.00;55.50
20670;DHT22;10494;50.868;4.180;2022-09-01T13:16:33;27.50;55.90
20670;DHT22;10494;50.868;4.180;2022-09-01T13:19:00;27.50;57.50
20670;DHT22;10494;50.868;4.180;2022-09-01T13:21:25;27.50;56.60
20670;DHT22;10494;50.868;4.180;2022-09-01T13:23:52;27.60;56.50
20670;DHT22;10494;50.868;4.180;2022-09-01T13:26:18;27.70;56.80
20670;DHT22;10494;50.868;4.180;2022-09-01T13:28:43;28.00;56.10
20670;DHT22;10494;50.868;4.180;2022-09-01T13:31:10;28.00;56.40
20670;DHT22;10494;50.868;4.180;2022-09-01T13:33:36;28.00;56.60
20670;DHT22;10494;50.868;4.180;2022-09-01T13:36:03;28.00;56.40
20670;DHT22;10494;50.868;4.180;2022-09-01T13:38:29;28.10;56.20
20670;DHT22;10494;50.868;4.180;2022-09-01T13:40:57;27.30;57.20
20670;DHT22;10494;50.868;4.180;2022-09-01T13:43:23;26.40;59.50
20670;DHT22;10494;50.868;4.180;2022-09-01T13:45:52;26.70;59.30
20670;DHT22;10494;50.868;4.180;2022-09-01T13:48:18;27.00;58.50
20670;DHT22;10494;50.868;4.180;2022-09-01T13:50:49;27.30;57.90
20670;DHT22;10494;50.868;4.180;2022-09-01T13:53:15;27.40;56.90
20670;DHT22;10494;50.868;4.180;2022-09-01T13:55:42;27.80;56.50
20670;DHT22;10494;50.868;4.180;2022-09-01T13:58:08;28.00;56.90
20670;DHT22;10494;50.868;4.180;2022-09-01T14:00:36;28.40;56.40
20670;DHT22;10494;50.868;4.180;2022-09-01T14:03:13;28.40;55.90
20670;DHT22;10494;50.868;4.180;2022-09-01T14:05:41;28.50;55.40
20670;DHT22;10494;50.868;4.180;2022-09-01T14:08:09;28.40;55.50
20670;DHT22;10494;50.868;4.180;2022-09-01T14:10:39;28.30;55.60
20670;DHT22;10494;50.868;4.180;2022-09-01T14:13:06;28.30;55.90
20670;DHT22;10494;50.868;4.180;2022-09-01T14:15:32;27.70;56.60
20670;DHT22;10494;50.868;4.180;2022-09-01T14:17:59;27.20;58.30
20670;DHT22;10494;50.868;4.180;2022-09-01T14:20:31;27.40;57.70
20670;DHT22;10494;50.868;4.180;2022-09-01T14:23:00;27.80;57.40
20670;DHT22;10494;50.868;4.180;2022-09-01T14:25:27;28.30;57.00
20670;DHT22;10494;50.868;4.180;2022-09-01T14:27:53;28.50;55.80
20670;DHT22;10494;50.868;4.180;2022-09-01T14:30:23;27.60;55.80
20670;DHT22;10494;50.868;4.180;2022-09-01T14:32:50;26.30;58.20
20670;DHT22;10494;50.868;4.180;2022-09-01T14:35:18;26.20;59.60
20670;DHT22;10494;50.868;4.180;2022-09-01T14:37:44;26.70;59.20
20670;DHT22;10494;50.868;4.180;2022-09-01T14:40:12;27.30;57.80
20670;DHT22;10494;50.868;4.180;2022-09-01T14:42:40;27.70;56.10
20670;DHT22;10494;50.868;4.180;2022-09-01T14:45:09;27.90;56.00
20670;DHT22;10494;50.868;4.180;2022-09-01T14:47:36;28.10;55.60
20670;DHT22;10494;50.868;4.180;2022-09-01T14:50:03;27.80;55.30
20670;DHT22;10494;50.868;4.180;2022-09-01T14:52:29;27.70;55.80
20670;DHT22;10494;50.868;4.180;2022-09-01T14:54:55;27.80;55.70
20670;DHT22;10494;50.868;4.180;2022-09-01T14:57:21;27.50;56.20
20670;DHT22;10494;50.868;4.180;2022-09-01T14:59:47;27.70;55.90
20670;DHT22;10494;50.868;4.180;2022-09-01T15:02:13;27.50;55.90
20670;DHT22;10494;50.868;4.180;2022-09-01T15:04:39;27.40;56.40
20670;DHT22;10494;50.868;4.180;2022-09-01T15:07:07;27.00;56.70
20670;DHT22;10494;50.868;4.180;2022-09-01T15:09:32;27.00;57.60
20670;DHT22;10494;50.868;4.180;2022-09-01T15:11:59;27.40;56.70
20670;DHT22;10494;50.868;4.180;2022-09-01T15:14:25;27.60;56.40
20670;DHT22;10494;50.868;4.180;2022-09-01T15:16:51;26.70;56.40
20670;DHT22;10494;50.868;4.180;2022-09-01T15:19:17;26.00;57.70
20670;DHT22;10494;50.868;4.180;2022-09-01T15:21:45;26.20;58.60
20670;DHT22;10494;50.868;4.180;2022-09-01T15:24:11;26.70;57.20
20670;DHT22;10494;50.868;4.180;2022-09-01T15:26:37;27.00;56.40
20670;DHT22;10494;50.868;4.180;2022-09-01T15:29:05;27.10;55.50
20670;DHT22;10494;50.868;4.180;2022-09-01T15:31:34;26.70;55.70
20670;DHT22;10494;50.868;4.180;2022-09-01T15:34:01;26.80;56.90
20670;DHT22;10494;50.868;4.180;2022-09-01T15:36:29;27.10;55.50
20670;DHT22;10494;50.868;4.180;2022-09-01T15:38:56;27.20;55.40
20670;DHT22;10494;50.868;4.180;2022-09-01T15:41:25;27.20;54.80
20670;DHT22;10494;50.868;4.180;2022-09-01T15:43:51;27.00;55.40
20670;DHT22;10494;50.868;4.180;2022-09-01T15:46:17;26.80;55.90
20670;DHT22;10494;50.868;4.180;2022-09-01T15:48:43;26.50;57.20
20670;DHT22;10494;50.868;4.180;2022-09-01T15:53:48;26.90;55.60
20670;DHT22;10494;50.868;4.180;2022-09-01T15:56:14;27.10;55.30
20670;DHT22;10494;50.868;4.180;2022-09-01T15:58:43;27.30;54.80
20670;DHT22;10494;50.868;4.180;2022-09-01T16:01:08;27.30;54.30
20670;DHT22;10494;50.868;4.180;2022-09-01T16:03:34;27.40;53.70
20670;DHT22;10494;50.868;4.180;2022-09-01T16:06:00;26.30;54.30
20670;DHT22;10494;50.868;4.180;2022-09-01T16:08:26;25.80;56.40
20670;DHT22;10494;50.868;4.180;2022-09-01T16:10:52;25.90;56.80
20670;DHT22;10494;50.868;4.180;2022-09-01T16:13:19;26.20;55.80
20670;DHT22;10494;50.868;4.180;2022-09-01T16:18:37;27.00;55.10
20670;DHT22;10494;50.868;4.180;2022-09-01T16:23:46;27.10;53.80
20670;DHT22;10494;50.868;4.180;2022-09-01T16:26:14;27.10;53.80
20670;DHT22;10494;50.868;4.180;2022-09-01T16:28:46;27.10;53.50
20670;DHT22;10494;50.868;4.180;2022-09-01T16:31:19;27.10;53.20
20670;DHT22;10494;50.868;4.180;2022-09-01T16:33:48;27.00;53.10
20670;DHT22;10494;50.868;4.180;2022-09-01T16:53:09;25.90;54.50
20670;DHT22;10494;50.868;4.180;2022-09-01T16:55:54;25.30;55.60
20670;DHT22;10494;50.868;4.180;2022-09-01T16:58:45;25.50;55.30
20670;DHT22;10494;50.868;4.180;2022-09-01T17:01:26;25.80;54.80
20670;DHT22;10494;50.868;4.180;2022-09-01T17:07:02;26.30;53.80
20670;DHT22;10494;50.868;4.180;2022-09-01T17:09:58;26.20;54.00
20670;DHT22;10494;50.868;4.180;2022-09-01T17:12:51;26.10;53.60
20670;DHT22;10494;50.868;4.180;2022-09-01T17:15:31;26.10;53.90
20670;DHT22;10494;50.868;4.180;2022-09-01T17:20:35;25.90;54.80
20670;DHT22;10494;50.868;4.180;2022-09-01T17:23:06;25.80;55.00
20670;DHT22;10494;50.868;4.180;2022-09-01T17:26:03;25.40;55.60
20670;DHT22;10494;50.868;4.180;2022-09-01T17:28:36;25.20;56.40
20670;DHT22;10494;50.868;4.180;2022-09-01T17:31:09;25.30;56.10
20670;DHT22;10494;50.868;4.180;2022-09-01T17:36:14;25.10;56.60